sensor_id;sensor_type;location;lat;lon;timestamp;P1;durP1;ratioP1;P2;durP2;ratioP2
74926;SDS011;63488;48.092;-1.640;2022-11-06T00:02:03;9.07;;;1.40;;
74926;SDS011;63488;48.092;-1.640;2022-11-06T00:04:28;6.78;;;1.85;;
74926;SDS011;63488;48.092;-1.640;2022-11-06T00:06:54;7.30;;;1.65;;
74926;SDS011;63488;48.092;-1.640;2022-11-06T00:09:19;7.03;;;1.63;;
74926;SDS011;63488;48.092;-1.640;2022-11-06T00:11:45;10.15;;;1.60;;
74926;SDS011;63488;48.092;-1.640;2022-11-06T00:14:11;5.53;;;1.23;;
74926;SDS011;63488;48.092;-1.640;2022-11-06T00:16:37;8.30;;;1.60;;
74926;SDS011;63488;48.092;-1.640;2022-11-06T00:19:03;9.27;;;1.60;;
74926;SDS011;63488;48.092;-1.640;2022-11-06T00:21:29;9.70;;;1.52;;
74926;SDS011;63488;48.092;-1.640;2022-11-06T00:23:55;6.10;;;1.30;;
74926;SDS011;63488;48.092;-1.640;2022-11-06T00:26:21;7.43;;;1.30;;
74926;SDS011;63488;48.092;-1.640;2022-11-06T00:28:47;9.73;;;1.55;;
74926;SDS011;63488;48.092;-1.640;2022-11-06T00:31:14;7.55;;;1.40;;
74926;SDS011;63488;48.092;-1.640;2022-11-06T00:33:40;5.35;;;1.27;;
74926;SDS011;63488;48.092;-1.640;2022-11-06T00:36:06;12.30;;;1.75;;
74926;SDS011;63488;48.092;-1.640;2022-11-06T00:38:32;6.65;;;1.58;;
74926;SDS011;63488;48.092;-1.640;2022-11-06T00:41:04;7.15;;;2.10;;
74926;SDS011;63488;48.092;-1.640;2022-11-06T00:43:30;6.55;;;1.40;;
74926;SDS011;63488;48.092;-1.640;2022-11-06T00:46:15;6.45;;;1.65;;
74926;SDS011;63488;48.092;-1.640;2022-11-06T00:48:41;5.18;;;1.20;;
74926;SDS011;63488;48.092;-1.640;2022-11-06T00:51:07;8.65;;;1.55;;
74926;SDS011;63488;48.092;-1.640;2022-11-06T00:53:33;7.88;;;1.50;;
74926;SDS011;63488;48.092;-1.640;2022-11-06T00:58:33;10.38;;;1.90;;
74926;SDS011;63488;48.092;-1.640;2022-11-06T01:01:06;8.77;;;1.50;;
74926;SDS011;63488;48.092;-1.640;2022-11-06T01:03:31;10.52;;;1.80;;
74926;SDS011;63488;48.092;-1.640;2022-11-06T01:06:04;7.35;;;1.52;;
74926;SDS011;63488;48.092;-1.640;2022-11-06T01:08:30;11.38;;;1.55;;
74926;SDS011;63488;48.092;-1.640;2022-11-06T01:10:55;9.80;;;1.45;;
74926;SDS011;63488;48.092;-1.640;2022-11-06T01:13:21;6.68;;;1.05;;
74926;SDS011;63488;48.092;-1.640;2022-11-06T01:15:46;6.72;;;1.35;;
74926;SDS011;63488;48.092;-1.640;2022-11-06T01:18:11;11.00;;;1.52;;
74926;SDS011;63488;48.092;-1.640;2022-11-06T01:20:37;6.85;;;1.23;;
74926;SDS011;63488;48.092;-1.640;2022-11-06T01:23:02;6.07;;;1.60;;
74926;SDS011;63488;48.092;-1.640;2022-11-06T01:25:27;7.13;;;1.30;;
74926;SDS011;63488;48.092;-1.640;2022-11-06T01:27:53;5.45;;;1.25;;
74926;SDS011;63488;48.092;-1.640;2022-11-06T01:30:18;11.07;;;1.60;;
74926;SDS011;63488;48.092;-1.640;2022-11-06T01:32:43;9.82;;;1.60;;
74926;SDS011;63488;48.092;-1.640;2022-11-06T01:35:09;6.70;;;1.38;;
74926;SDS011;63488;48.092;-1.640;2022-11-06T01:37:34;7.50;;;1.33;;
74926;SDS011;63488;48.092;-1.640;2022-11-06T01:39:59;8.70;;;1.50;;
74926;SDS011;63488;48.092;-1.640;2022-11-06T01:42:25;8.80;;;1.45;;
74926;SDS011;63488;48.092;-1.640;2022-11-06T01:47:26;5.97;;;1.30;;
74926;SDS011;63488;48.092;-1.640;2022-11-06T01:49:55;6.03;;;1.48;;
74926;SDS011;63488;48.092;-1.640;2022-11-06T01:54:47;8.43;;;1.50;;
74926;SDS011;63488;48.092;-1.640;2022-11-06T01:57:14;7.78;;;1.10;;
74926;SDS011;63488;48.092;-1.640;2022-11-06T01:59:40;8.50;;;1.60;;
74926;SDS011;63488;48.092;-1.640;2022-11-06T02:02:06;8.05;;;1.35;;
74926;SDS011;63488;48.092;-1.640;2022-11-06T02:04:36;8.55;;;1.50;;
74926;SDS011;63488;48.092;-1.640;2022-11-06T02:07:02;5.80;;;1.45;;
74926;SDS011;63488;48.092;-1.640;2022-11-06T02:09:28;9.52;;;1.58;;
74926;SDS011;63488;48.092;-1.640;2022-11-06T02:11:57;10.30;;;1.63;;
74926;SDS011;63488;48.092;-1.640;2022-11-06T02:29:19;6.88;;;1.48;;
74926;SDS011;63488;48.092;-1.640;2022-11-06T02:31:45;8.55;;;1.70;;
74926;SDS011;63488;48.092;-1.640;2022-11-06T02:34:13;9.90;;;1.48;;
74926;SDS011;63488;48.092;-1.640;2022-11-06T02:36:41;7.32;;;1.60;;
74926;SDS011;63488;48.092;-1.640;2022-11-06T02:39:09;7.22;;;1.35;;
74926;SDS011;63488;48.092;-1.640;2022-11-06T02:41:37;9.10;;;1.83;;
74926;SDS011;63488;48.092;-1.640;2022-11-06T02:44:05;7.22;;;1.60;;
74926;SDS011;63488;48.092;-1.640;2022-11-06T02:46:36;7.28;;;1.50;;
74926;SDS011;63488;48.092;-1.640;2022-11-06T02:49:25;5.90;;;1.38;;
74926;SDS011;63488;48.092;-1.640;2022-11-06T02:51:49;6.20;;;1.40;;
74926;SDS011;63488;48.092;-1.640;2022-11-06T02:54:18;7.05;;;1.60;;
74926;SDS011;63488;48.092;-1.640;2022-11-06T02:56:45;4.85;;;1.33;;
74926;SDS011;63488;48.092;-1.640;2022-11-06T02:59:14;7.70;;;2.03;;
74926;SDS011;63488;48.092;-1.640;2022-11-06T03:01:43;10.27;;;1.47;;
74926;SDS011;63488;48.092;-1.640;2022-11-06T03:04:12;9.88;;;1.67;;
74926;SDS011;63488;48.092;-1.640;2022-11-06T03:06:41;7.38;;;2.00;;
74926;SDS011;63488;48.092;-1.640;2022-11-06T03:11:35;5.97;;;2.00;;
74926;SDS011;63488;48.092;-1.640;2022-11-06T03:19:17;6.78;;;1.58;;
74926;SDS011;63488;48.092;-1.640;2022-11-06T03:21:52;8.02;;;1.70;;
74926;SDS011;63488;48.092;-1.640;2022-11-06T03:24:20;5.53;;;1.73;;
74926;SDS011;63488;48.092;-1.640;2022-11-06T03:26:48;6.40;;;1.50;;
74926;SDS011;63488;48.092;-1.640;2022-11-06T03:29:19;6.57;;;1.42;;
74926;SDS011;63488;48.092;-1.640;2022-11-06T03:34:33;3.97;;;1.10;;
74926;SDS011;63488;48.092;-1.640;2022-11-06T03:37:01;4.87;;;1.40;;
74926;SDS011;63488;48.092;-1.640;2022-11-06T03:39:30;5.10;;;1.52;;
74926;SDS011;63488;48.092;-1.640;2022-11-06T03:41:59;5.43;;;1.60;;
74926;SDS011;63488;48.092;-1.640;2022-11-06T03:46:56;5.83;;;1.40;;
74926;SDS011;63488;48.092;-1.640;2022-11-06T03:49:31;6.57;;;1.80;;
74926;SDS011;63488;48.092;-1.640;2022-11-06T03:51:59;6.78;;;1.85;;
74926;SDS011;63488;48.092;-1.640;2022-11-06T03:54:26;9.50;;;1.70;;
74926;SDS011;63488;48.092;-1.640;2022-11-06T03:59:18;6.25;;;1.60;;
74926;SDS011;63488;48.092;-1.640;2022-11-06T04:01:49;8.02;;;2.08;;
74926;SDS011;63488;48.092;-1.640;2022-11-06T04:04:26;5.65;;;1.67;;
74926;SDS011;63488;48.092;-1.640;2022-11-06T04:06:58;6.15;;;1.70;;
74926;SDS011;63488;48.092;-1.640;2022-11-06T04:09:25;8.93;;;1.98;;
74926;SDS011;63488;48.092;-1.640;2022-11-06T04:12:10;6.35;;;2.45;;
74926;SDS011;63488;48.092;-1.640;2022-11-06T04:14:54;5.95;;;1.63;;
74926;SDS011;63488;48.092;-1.640;2022-11-06T04:17:21;6.80;;;1.73;;
74926;SDS011;63488;48.092;-1.640;2022-11-06T04:19:48;5.20;;;1.80;;
74926;SDS011;63488;48.092;-1.640;2022-11-06T04:25:10;6.15;;;1.50;;
74926;SDS011;63488;48.092;-1.640;2022-11-06T04:28:18;6.78;;;1.80;;
74926;SDS011;63488;48.092;-1.640;2022-11-06T04:30:59;6.43;;;1.50;;
74926;SDS011;63488;48.092;-1.640;2022-11-06T04:36:05;5.57;;;1.30;;
74926;SDS011;63488;48.092;-1.640;2022-11-06T04:41:04;3.38;;;1.35;;
74926;SDS011;63488;48.092;-1.640;2022-11-06T04:43:36;4.47;;;1.10;;
74926;SDS011;63488;48.092;-1.640;2022-11-06T04:46:04;3.38;;;1.13;;
74926;SDS011;63488;48.092;-1.640;2022-11-06T04:48:30;3.95;;;1.00;;
74926;SDS011;63488;48.092;-1.640;2022-11-06T04:50:57;3.60;;;0.98;;
74926;SDS011;63488;48.092;-1.640;2022-11-06T04:53:23;5.28;;;1.52;;
74926;SDS011;63488;48.092;-1.640;2022-11-06T04:55:53;3.05;;;1.00;;
74926;SDS011;63488;48.092;-1.640;2022-11-06T04:58:19;3.00;;;0.77;;
74926;SDS011;63488;48.092;-1.640;2022-11-06T05:00:46;4.55;;;0.90;;
74926;SDS011;63488;48.092;-1.640;2022-11-06T05:03:11;3.67;;;0.90;;
74926;SDS011;63488;48.092;-1.640;2022-11-06T05:05:37;2.17;;;0.80;;
74926;SDS011;63488;48.092;-1.640;2022-11-06T05:08:02;4.03;;;0.80;;
74926;SDS011;63488;48.092;-1.640;2022-11-06T05:10:27;3.83;;;0.93;;
74926;SDS011;63488;48.092;-1.640;2022-11-06T05:12:53;2.25;;;0.88;;
74926;SDS011;63488;48.092;-1.640;2022-11-06T05:15:18;6.05;;;0.80;;
74926;SDS011;63488;48.092;-1.640;2022-11-06T05:17:43;5.55;;;0.98;;
74926;SDS011;63488;48.092;-1.640;2022-11-06T05:20:09;4.43;;;1.00;;
74926;SDS011;63488;48.092;-1.640;2022-11-06T05:22:38;4.93;;;0.90;;
74926;SDS011;63488;48.092;-1.640;2022-11-06T05:25:35;2.45;;;0.80;;
74926;SDS011;63488;48.092;-1.640;2022-11-06T05:28:01;4.13;;;0.83;;
74926;SDS011;63488;48.092;-1.640;2022-11-06T05:30:27;2.90;;;0.77;;
74926;SDS011;63488;48.092;-1.640;2022-11-06T05:32:52;3.40;;;0.90;;
74926;SDS011;63488;48.092;-1.640;2022-11-06T05:35:18;3.88;;;0.90;;
74926;SDS011;63488;48.092;-1.640;2022-11-06T05:37:45;5.32;;;1.02;;
74926;SDS011;63488;48.092;-1.640;2022-11-06T05:40:10;2.75;;;1.00;;
74926;SDS011;63488;48.092;-1.640;2022-11-06T05:42:39;3.33;;;0.77;;
74926;SDS011;63488;48.092;-1.640;2022-11-06T05:45:05;2.07;;;0.80;;
74926;SDS011;63488;48.092;-1.640;2022-11-06T05:47:31;2.72;;;0.68;;
74926;SDS011;63488;48.092;-1.640;2022-11-06T05:49:56;2.92;;;0.70;;
74926;SDS011;63488;48.092;-1.640;2022-11-06T05:52:22;3.35;;;0.70;;
74926;SDS011;63488;48.092;-1.640;2022-11-06T05:54:47;7.00;;;1.98;;
74926;SDS011;63488;48.092;-1.640;2022-11-06T05:57:12;1.80;;;0.57;;
74926;SDS011;63488;48.092;-1.640;2022-11-06T05:59:38;2.00;;;0.65;;
74926;SDS011;63488;48.092;-1.640;2022-11-06T06:02:03;1.77;;;0.43;;
74926;SDS011;63488;48.092;-1.640;2022-11-06T06:04:28;1.65;;;0.60;;
74926;SDS011;63488;48.092;-1.640;2022-11-06T06:06:54;2.53;;;0.60;;
74926;SDS011;63488;48.092;-1.640;2022-11-06T06:09:19;1.60;;;0.45;;
74926;SDS011;63488;48.092;-1.640;2022-11-06T06:11:44;2.63;;;0.70;;
74926;SDS011;63488;48.092;-1.640;2022-11-06T06:14:10;2.17;;;0.50;;
74926;SDS011;63488;48.092;-1.640;2022-11-06T06:16:35;2.22;;;0.70;;
74926;SDS011;63488;48.092;-1.640;2022-11-06T06:19:00;1.80;;;0.47;;
74926;SDS011;63488;48.092;-1.640;2022-11-06T06:21:26;4.18;;;0.50;;
74926;SDS011;63488;48.092;-1.640;2022-11-06T06:23:51;3.88;;;0.70;;
74926;SDS011;63488;48.092;-1.640;2022-11-06T06:26:16;0.90;;;0.40;;
74926;SDS011;63488;48.092;-1.640;2022-11-06T06:28:42;3.50;;;0.45;;
74926;SDS011;63488;48.092;-1.640;2022-11-06T06:31:07;0.90;;;0.43;;
74926;SDS011;63488;48.092;-1.640;2022-11-06T06:33:33;1.75;;;0.55;;
74926;SDS011;63488;48.092;-1.640;2022-11-06T06:36:01;1.33;;;0.40;;
74926;SDS011;63488;48.092;-1.640;2022-11-06T06:38:27;2.25;;;0.60;;
74926;SDS011;63488;48.092;-1.640;2022-11-06T06:40:52;3.08;;;0.45;;
74926;SDS011;63488;48.092;-1.640;2022-11-06T06:43:18;3.33;;;0.70;;
74926;SDS011;63488;48.092;-1.640;2022-11-06T06:45:43;1.98;;;0.60;;
74926;SDS011;63488;48.092;-1.640;2022-11-06T06:48:08;1.70;;;0.60;;
74926;SDS011;63488;48.092;-1.640;2022-11-06T06:50:34;1.27;;;0.50;;
74926;SDS011;63488;48.092;-1.640;2022-11-06T06:52:59;3.60;;;0.70;;
74926;SDS011;63488;48.092;-1.640;2022-11-06T06:55:25;0.85;;;0.40;;
74926;SDS011;63488;48.092;-1.640;2022-11-06T06:57:57;1.67;;;0.40;;
74926;SDS011;63488;48.092;-1.640;2022-11-06T07:00:22;2.60;;;0.77;;
74926;SDS011;63488;48.092;-1.640;2022-11-06T07:02:47;1.33;;;0.40;;
74926;SDS011;63488;48.092;-1.640;2022-11-06T07:05:13;1.08;;;0.50;;
74926;SDS011;63488;48.092;-1.640;2022-11-06T07:07:38;1.23;;;0.40;;
74926;SDS011;63488;48.092;-1.640;2022-11-06T07:10:04;1.08;;;0.57;;
74926;SDS011;63488;48.092;-1.640;2022-11-06T07:12:29;2.65;;;0.50;;
74926;SDS011;63488;48.092;-1.640;2022-11-06T07:14:54;1.48;;;0.52;;
74926;SDS011;63488;48.092;-1.640;2022-11-06T07:17:20;1.25;;;0.43;;
74926;SDS011;63488;48.092;-1.640;2022-11-06T07:19:45;3.33;;;0.70;;
74926;SDS011;63488;48.092;-1.640;2022-11-06T07:22:11;1.60;;;0.70;;
74926;SDS011;63488;48.092;-1.640;2022-11-06T07:24:36;0.65;;;0.65;;
74926;SDS011;63488;48.092;-1.640;2022-11-06T07:27:01;4.10;;;0.80;;
74926;SDS011;63488;48.092;-1.640;2022-11-06T07:29:27;2.38;;;0.50;;
74926;SDS011;63488;48.092;-1.640;2022-11-06T07:31:52;1.33;;;0.50;;
74926;SDS011;63488;48.092;-1.640;2022-11-06T07:34:17;2.50;;;0.50;;
74926;SDS011;63488;48.092;-1.640;2022-11-06T07:36:43;1.25;;;0.50;;
74926;SDS011;63488;48.092;-1.640;2022-11-06T07:39:08;1.27;;;0.60;;
74926;SDS011;63488;48.092;-1.640;2022-11-06T07:41:33;2.45;;;0.50;;
74926;SDS011;63488;48.092;-1.640;2022-11-06T07:43:59;1.15;;;0.50;;
74926;SDS011;63488;48.092;-1.640;2022-11-06T07:46:24;1.70;;;0.38;;
74926;SDS011;63488;48.092;-1.640;2022-11-06T07:48:50;1.73;;;0.43;;
74926;SDS011;63488;48.092;-1.640;2022-11-06T07:51:15;0.98;;;0.25;;
74926;SDS011;63488;48.092;-1.640;2022-11-06T07:53:40;3.55;;;0.52;;
74926;SDS011;63488;48.092;-1.640;2022-11-06T07:56:06;1.55;;;0.40;;
74926;SDS011;63488;48.092;-1.640;2022-11-06T07:58:32;0.47;;;0.40;;
74926;SDS011;63488;48.092;-1.640;2022-11-06T08:00:58;2.65;;;0.50;;
74926;SDS011;63488;48.092;-1.640;2022-11-06T08:03:24;1.23;;;0.50;;
74926;SDS011;63488;48.092;-1.640;2022-11-06T08:05:50;1.17;;;0.30;;
74926;SDS011;63488;48.092;-1.640;2022-11-06T08:08:15;1.35;;;0.40;;
74926;SDS011;63488;48.092;-1.640;2022-11-06T08:10:40;1.75;;;0.45;;
74926;SDS011;63488;48.092;-1.640;2022-11-06T08:13:11;1.83;;;0.40;;
74926;SDS011;63488;48.092;-1.640;2022-11-06T08:15:37;1.25;;;0.50;;
74926;SDS011;63488;48.092;-1.640;2022-11-06T08:18:03;1.70;;;0.43;;
74926;SDS011;63488;48.092;-1.640;2022-11-06T08:20:29;2.75;;;0.40;;
74926;SDS011;63488;48.092;-1.640;2022-11-06T08:22:58;1.13;;;0.32;;
74926;SDS011;63488;48.092;-1.640;2022-11-06T08:27:49;1.03;;;0.30;;
74926;SDS011;63488;48.092;-1.640;2022-11-06T08:30:14;1.17;;;0.40;;
74926;SDS011;63488;48.092;-1.640;2022-11-06T08:32:39;2.80;;;0.40;;
74926;SDS011;63488;48.092;-1.640;2022-11-06T08:35:05;2.17;;;0.40;;
74926;SDS011;63488;48.092;-1.640;2022-11-06T08:37:31;1.13;;;0.50;;
74926;SDS011;63488;48.092;-1.640;2022-11-06T08:39:56;2.85;;;0.43;;
74926;SDS011;63488;48.092;-1.640;2022-11-06T08:42:21;2.63;;;0.52;;
74926;SDS011;63488;48.092;-1.640;2022-11-06T08:44:47;1.27;;;0.50;;
74926;SDS011;63488;48.092;-1.640;2022-11-06T08:47:12;2.83;;;0.82;;
74926;SDS011;63488;48.092;-1.640;2022-11-06T08:49:37;1.00;;;0.38;;
74926;SDS011;63488;48.092;-1.640;2022-11-06T08:52:03;2.10;;;0.50;;
74926;SDS011;63488;48.092;-1.640;2022-11-06T08:54:28;1.88;;;0.55;;
74926;SDS011;63488;48.092;-1.640;2022-11-06T08:56:55;1.10;;;0.40;;
74926;SDS011;63488;48.092;-1.640;2022-11-06T08:59:20;1.08;;;0.50;;
74926;SDS011;63488;48.092;-1.640;2022-11-06T09:01:46;0.73;;;0.30;;
74926;SDS011;63488;48.092;-1.640;2022-11-06T09:04:11;1.75;;;0.45;;
74926;SDS011;63488;48.092;-1.640;2022-11-06T09:06:36;2.97;;;0.75;;
74926;SDS011;63488;48.092;-1.640;2022-11-06T09:09:02;1.63;;;0.65;;
74926;SDS011;63488;48.092;-1.640;2022-11-06T09:11:27;1.45;;;0.50;;
74926;SDS011;63488;48.092;-1.640;2022-11-06T09:13:53;2.28;;;0.80;;
74926;SDS011;63488;48.092;-1.640;2022-11-06T09:16:18;1.35;;;0.68;;
74926;SDS011;63488;48.092;-1.640;2022-11-06T09:18:43;1.67;;;0.40;;
74926;SDS011;63488;48.092;-1.640;2022-11-06T09:21:09;1.25;;;0.43;;
74926;SDS011;63488;48.092;-1.640;2022-11-06T09:23:34;1.58;;;0.60;;
74926;SDS011;63488;48.092;-1.640;2022-11-06T09:26:00;1.67;;;0.70;;
74926;SDS011;63488;48.092;-1.640;2022-11-06T09:28:25;3.80;;;0.77;;
74926;SDS011;63488;48.092;-1.640;2022-11-06T09:30:50;1.63;;;0.55;;
74926;SDS011;63488;48.092;-1.640;2022-11-06T09:33:16;1.48;;;0.55;;
74926;SDS011;63488;48.092;-1.640;2022-11-06T09:35:41;1.23;;;0.50;;
74926;SDS011;63488;48.092;-1.640;2022-11-06T09:38:08;1.92;;;0.60;;
74926;SDS011;63488;48.092;-1.640;2022-11-06T09:41:11;3.10;;;0.50;;
74926;SDS011;63488;48.092;-1.640;2022-11-06T09:45:59;3.45;;;0.73;;
74926;SDS011;63488;48.092;-1.640;2022-11-06T09:48:36;2.05;;;0.45;;
74926;SDS011;63488;48.092;-1.640;2022-11-06T09:54:24;3.13;;;0.88;;
74926;SDS011;63488;48.092;-1.640;2022-11-06T09:56:30;4.90;;;0.73;;
74926;SDS011;63488;48.092;-1.640;2022-11-06T09:58:57;2.30;;;0.75;;
74926;SDS011;63488;48.092;-1.640;2022-11-06T10:01:26;4.10;;;0.98;;
74926;SDS011;63488;48.092;-1.640;2022-11-06T10:06:18;1.80;;;0.57;;
74926;SDS011;63488;48.092;-1.640;2022-11-06T10:08:44;4.82;;;0.80;;
74926;SDS011;63488;48.092;-1.640;2022-11-06T10:13:42;4.45;;;0.70;;
74926;SDS011;63488;48.092;-1.640;2022-11-06T10:16:16;3.10;;;0.80;;
74926;SDS011;63488;48.092;-1.640;2022-11-06T10:21:18;2.50;;;0.95;;
74926;SDS011;63488;48.092;-1.640;2022-11-06T10:23:57;2.55;;;0.88;;
74926;SDS011;63488;48.092;-1.640;2022-11-06T10:36:40;3.95;;;1.00;;
74926;SDS011;63488;48.092;-1.640;2022-11-06T10:39:10;3.78;;;0.95;;
74926;SDS011;63488;48.092;-1.640;2022-11-06T10:41:37;5.82;;;1.20;;
74926;SDS011;63488;48.092;-1.640;2022-11-06T10:46:45;4.95;;;1.10;;
74926;SDS011;63488;48.092;-1.640;2022-11-06T10:49:34;2.55;;;0.70;;
74926;SDS011;63488;48.092;-1.640;2022-11-06T10:57:43;4.43;;;1.25;;
74926;SDS011;63488;48.092;-1.640;2022-11-06T11:00:10;6.15;;;1.00;;
74926;SDS011;63488;48.092;-1.640;2022-11-06T11:02:38;5.80;;;1.00;;
74926;SDS011;63488;48.092;-1.640;2022-11-06T11:05:38;2.90;;;1.00;;
74926;SDS011;63488;48.092;-1.640;2022-11-06T11:07:56;5.20;;;0.98;;
74926;SDS011;63488;48.092;-1.640;2022-11-06T11:12:47;8.80;;;1.30;;
74926;SDS011;63488;48.092;-1.640;2022-11-06T11:15:22;5.15;;;1.25;;
74926;SDS011;63488;48.092;-1.640;2022-11-06T11:18:08;5.63;;;1.25;;
74926;SDS011;63488;48.092;-1.640;2022-11-06T11:20:39;6.65;;;1.67;;
74926;SDS011;63488;48.092;-1.640;2022-11-06T11:23:26;6.03;;;1.30;;
74926;SDS011;63488;48.092;-1.640;2022-11-06T11:25:53;6.45;;;1.20;;
74926;SDS011;63488;48.092;-1.640;2022-11-06T11:30:51;5.13;;;1.10;;
74926;SDS011;63488;48.092;-1.640;2022-11-06T11:33:17;9.13;;;1.35;;
74926;SDS011;63488;48.092;-1.640;2022-11-06T11:35:45;6.45;;;0.90;;
74926;SDS011;63488;48.092;-1.640;2022-11-06T11:38:13;5.55;;;1.25;;
74926;SDS011;63488;48.092;-1.640;2022-11-06T11:40:39;6.78;;;1.15;;
74926;SDS011;63488;48.092;-1.640;2022-11-06T11:43:18;9.93;;;2.03;;
74926;SDS011;63488;48.092;-1.640;2022-11-06T11:46:01;5.65;;;1.30;;
74926;SDS011;63488;48.092;-1.640;2022-11-06T11:48:39;7.32;;;1.50;;
74926;SDS011;63488;48.092;-1.640;2022-11-06T11:53:48;6.32;;;1.17;;
74926;SDS011;63488;48.092;-1.640;2022-11-06T11:56:16;7.95;;;1.20;;
74926;SDS011;63488;48.092;-1.640;2022-11-06T11:58:52;8.48;;;0.95;;
74926;SDS011;63488;48.092;-1.640;2022-11-06T12:01:19;5.28;;;0.98;;
74926;SDS011;63488;48.092;-1.640;2022-11-06T12:03:55;5.05;;;1.10;;
74926;SDS011;63488;48.092;-1.640;2022-11-06T12:06:21;5.32;;;1.15;;
74926;SDS011;63488;48.092;-1.640;2022-11-06T12:08:47;5.65;;;1.15;;
74926;SDS011;63488;48.092;-1.640;2022-11-06T12:11:15;3.55;;;0.80;;
74926;SDS011;63488;48.092;-1.640;2022-11-06T12:13:43;5.55;;;0.98;;
74926;SDS011;63488;48.092;-1.640;2022-11-06T12:16:13;7.25;;;1.00;;
74926;SDS011;63488;48.092;-1.640;2022-11-06T12:18:39;2.85;;;0.88;;
74926;SDS011;63488;48.092;-1.640;2022-11-06T12:28:28;4.50;;;1.02;;
74926;SDS011;63488;48.092;-1.640;2022-11-06T12:30:59;6.13;;;1.13;;
74926;SDS011;63488;48.092;-1.640;2022-11-06T12:33:26;4.45;;;0.88;;
74926;SDS011;63488;48.092;-1.640;2022-11-06T12:35:56;5.50;;;1.20;;
74926;SDS011;63488;48.092;-1.640;2022-11-06T12:54:20;9.00;;;1.05;;
74926;SDS011;63488;48.092;-1.640;2022-11-06T12:59:01;10.15;;;1.30;;
74926;SDS011;63488;48.092;-1.640;2022-11-06T13:04:14;9.05;;;1.67;;
74926;SDS011;63488;48.092;-1.640;2022-11-06T13:09:27;8.75;;;1.35;;
74926;SDS011;63488;48.092;-1.640;2022-11-06T13:12:40;9.57;;;1.58;;
74926;SDS011;63488;48.092;-1.640;2022-11-06T13:14:42;7.07;;;1.23;;
74926;SDS011;63488;48.092;-1.640;2022-11-06T13:17:12;7.85;;;1.35;;
74926;SDS011;63488;48.092;-1.640;2022-11-06T13:19:45;10.13;;;1.35;;
74926;SDS011;63488;48.092;-1.640;2022-11-06T13:22:35;6.80;;;1.25;;
74926;SDS011;63488;48.092;-1.640;2022-11-06T13:30:13;10.48;;;1.30;;
74926;SDS011;63488;48.092;-1.640;2022-11-06T13:32:39;8.25;;;1.33;;
74926;SDS011;63488;48.092;-1.640;2022-11-06T13:35:10;7.47;;;1.50;;
74926;SDS011;63488;48.092;-1.640;2022-11-06T13:37:38;6.57;;;1.40;;
74926;SDS011;63488;48.092;-1.640;2022-11-06T13:40:08;6.65;;;1.27;;
74926;SDS011;63488;48.092;-1.640;2022-11-06T13:43:00;7.75;;;1.40;;
74926;SDS011;63488;48.092;-1.640;2022-11-06T13:45:23;9.43;;;1.33;;
74926;SDS011;63488;48.092;-1.640;2022-11-06T13:48:08;9.27;;;1.60;;
74926;SDS011;63488;48.092;-1.640;2022-11-06T13:50:52;9.93;;;1.50;;
74926;SDS011;63488;48.092;-1.640;2022-11-06T13:53:43;7.30;;;1.10;;
74926;SDS011;63488;48.092;-1.640;2022-11-06T14:06:22;8.88;;;1.42;;
74926;SDS011;63488;48.092;-1.640;2022-11-06T14:09:04;9.50;;;1.75;;
74926;SDS011;63488;48.092;-1.640;2022-11-06T14:11:34;9.45;;;1.35;;
74926;SDS011;63488;48.092;-1.640;2022-11-06T14:14:10;6.15;;;1.00;;
74926;SDS011;63488;48.092;-1.640;2022-11-06T14:16:36;6.55;;;1.15;;
74926;SDS011;63488;48.092;-1.640;2022-11-06T14:21:41;8.00;;;1.30;;
74926;SDS011;63488;48.092;-1.640;2022-11-06T14:26:41;9.27;;;1.60;;
74926;SDS011;63488;48.092;-1.640;2022-11-06T14:29:50;9.48;;;1.10;;
74926;SDS011;63488;48.092;-1.640;2022-11-06T14:32:11;7.07;;;1.30;;
74926;SDS011;63488;48.092;-1.640;2022-11-06T14:40:10;7.65;;;1.30;;
74926;SDS011;63488;48.092;-1.640;2022-11-06T14:42:45;9.20;;;1.52;;
74926;SDS011;63488;48.092;-1.640;2022-11-06T14:45:14;9.93;;;1.35;;
74926;SDS011;63488;48.092;-1.640;2022-11-06T14:48:01;5.22;;;1.17;;
74926;SDS011;63488;48.092;-1.640;2022-11-06T14:50:36;8.48;;;1.45;;
74926;SDS011;63488;48.092;-1.640;2022-11-06T14:56:05;10.32;;;1.98;;
74926;SDS011;63488;48.092;-1.640;2022-11-06T14:58:24;9.48;;;1.80;;
74926;SDS011;63488;48.092;-1.640;2022-11-06T15:03:21;10.82;;;1.58;;
74926;SDS011;63488;48.092;-1.640;2022-11-06T15:05:47;10.35;;;1.85;;
74926;SDS011;63488;48.092;-1.640;2022-11-06T15:08:25;11.75;;;1.55;;
74926;SDS011;63488;48.092;-1.640;2022-11-06T15:10:58;9.10;;;1.90;;
74926;SDS011;63488;48.092;-1.640;2022-11-06T15:13:24;5.70;;;1.10;;
74926;SDS011;63488;48.092;-1.640;2022-11-06T15:15:54;4.85;;;1.20;;
74926;SDS011;63488;48.092;-1.640;2022-11-06T15:18:22;7.88;;;1.70;;
74926;SDS011;63488;48.092;-1.640;2022-11-06T15:20:49;9.70;;;1.80;;
74926;SDS011;63488;48.092;-1.640;2022-11-06T15:23:20;10.88;;;1.58;;
74926;SDS011;63488;48.092;-1.640;2022-11-06T15:25:49;9.30;;;2.00;;
74926;SDS011;63488;48.092;-1.640;2022-11-06T15:28:21;9.23;;;1.50;;
74926;SDS011;63488;48.092;-1.640;2022-11-06T15:30:55;9.13;;;1.42;;
74926;SDS011;63488;48.092;-1.640;2022-11-06T15:33:32;9.50;;;1.90;;
74926;SDS011;63488;48.092;-1.640;2022-11-06T15:36:00;11.82;;;2.15;;
74926;SDS011;63488;48.092;-1.640;2022-11-06T15:38:28;13.98;;;1.90;;
74926;SDS011;63488;48.092;-1.640;2022-11-06T15:40:54;11.70;;;1.90;;
74926;SDS011;63488;48.092;-1.640;2022-11-06T15:43:30;11.30;;;1.50;;
74926;SDS011;63488;48.092;-1.640;2022-11-06T15:46:14;8.85;;;1.63;;
74926;SDS011;63488;48.092;-1.640;2022-11-06T15:48:40;9.27;;;1.90;;
74926;SDS011;63488;48.092;-1.640;2022-11-06T15:51:22;11.10;;;1.90;;
74926;SDS011;63488;48.092;-1.640;2022-11-06T15:53:48;9.45;;;1.17;;
74926;SDS011;63488;48.092;-1.640;2022-11-06T15:56:15;10.82;;;2.70;;
74926;SDS011;63488;48.092;-1.640;2022-11-06T15:58:41;13.65;;;2.20;;
74926;SDS011;63488;48.092;-1.640;2022-11-06T16:01:09;12.10;;;1.77;;
74926;SDS011;63488;48.092;-1.640;2022-11-06T16:03:51;11.32;;;1.90;;
74926;SDS011;63488;48.092;-1.640;2022-11-06T16:06:17;12.07;;;1.73;;
74926;SDS011;63488;48.092;-1.640;2022-11-06T16:08:42;14.50;;;2.00;;
74926;SDS011;63488;48.092;-1.640;2022-11-06T16:11:13;10.95;;;1.83;;
74926;SDS011;63488;48.092;-1.640;2022-11-06T16:13:39;15.57;;;2.10;;
74926;SDS011;63488;48.092;-1.640;2022-11-06T16:16:05;14.45;;;1.90;;
74926;SDS011;63488;48.092;-1.640;2022-11-06T16:18:32;14.70;;;2.40;;
74926;SDS011;63488;48.092;-1.640;2022-11-06T16:21:36;11.38;;;1.67;;
74926;SDS011;63488;48.092;-1.640;2022-11-06T16:23:56;10.10;;;2.08;;
74926;SDS011;63488;48.092;-1.640;2022-11-06T16:26:26;11.07;;;1.55;;
74926;SDS011;63488;48.092;-1.640;2022-11-06T16:28:52;11.15;;;2.35;;
74926;SDS011;63488;48.092;-1.640;2022-11-06T16:31:22;12.63;;;1.98;;
74926;SDS011;63488;48.092;-1.640;2022-11-06T16:33:54;13.27;;;1.88;;
74926;SDS011;63488;48.092;-1.640;2022-11-06T16:36:20;14.63;;;2.10;;
74926;SDS011;63488;48.092;-1.640;2022-11-06T16:38:46;15.15;;;2.10;;
74926;SDS011;63488;48.092;-1.640;2022-11-06T16:41:14;13.80;;;2.20;;
74926;SDS011;63488;48.092;-1.640;2022-11-06T16:49:30;10.35;;;2.10;;
74926;SDS011;63488;48.092;-1.640;2022-11-06T16:51:56;14.57;;;2.63;;
74926;SDS011;63488;48.092;-1.640;2022-11-06T16:54:21;17.77;;;2.63;;
74926;SDS011;63488;48.092;-1.640;2022-11-06T16:56:47;15.57;;;2.60;;
74926;SDS011;63488;48.092;-1.640;2022-11-06T16:59:14;15.05;;;2.17;;
74926;SDS011;63488;48.092;-1.640;2022-11-06T17:01:42;12.75;;;2.40;;
74926;SDS011;63488;48.092;-1.640;2022-11-06T17:04:26;13.70;;;3.30;;
74926;SDS011;63488;48.092;-1.640;2022-11-06T17:06:54;16.73;;;4.22;;
74926;SDS011;63488;48.092;-1.640;2022-11-06T17:11:46;16.23;;;2.92;;
74926;SDS011;63488;48.092;-1.640;2022-11-06T17:14:16;15.15;;;2.90;;
74926;SDS011;63488;48.092;-1.640;2022-11-06T17:16:46;12.80;;;2.15;;
74926;SDS011;63488;48.092;-1.640;2022-11-06T17:19:13;15.05;;;2.42;;
74926;SDS011;63488;48.092;-1.640;2022-11-06T17:21:39;14.48;;;2.95;;